Time;durP1;ratioP1;P1;durP2;ratioP2;P2;SDS_P1;SDS_P2;PMS_P1;PMS_P2;Temp;Humidity;BMP_temperature;BMP_pressure;BME280_temperature;BME280_humidity;BME280_pressure;Samples;Min_cycle;Max_cycle;Signal;HPM_P1;HPM_P2
2022/08/29 00:01:29;;;;;;;10.70;6.85;;;;;;;19.03;71.03;99891.08;1736609;82;21021;-71
2022/08/29 00:03:56;;;;;;;10.03;6.62;;;;;;;19.02;71.04;99894.78;1738589;82;20988;-70
2022/08/29 00:06:25;;;;;;;13.72;7.40;;;;;;;18.99;71.05;99890.30;1738528;82;20933;-71
2022/08/29 00:08:53;;;;;;;10.43;6.67;;;;;;;18.97;71.08;99895.01;1738687;82;21016;-70
2022/08/29 00:11:20;;;;;;;14.87;8.18;;;;;;;18.94;71.27;99894.06;1742879;81;21059;-71
2022/08/29 00:13:47;;;;;;;13.13;7.90;;;;;;;18.88;71.48;99894.28;1753700;81;20972;-70
2022/08/29 00:16:16;;;;;;;12.60;7.30;;;;;;;18.83;71.51;99891.36;1742696;81;21035;-69
2022/08/29 00:18:42;;;;;;;11.00;7.05;;;;;;;18.82;71.55;99883.02;1768368;80;22383;-69
2022/08/29 00:21:09;;;;;;;11.50;7.70;;;;;;;18.79;71.54;99884.19;1764186;80;21022;-69
2022/08/29 00:23:35;;;;;;;14.35;7.90;;;;;;;18.75;71.49;99878.91;1771740;79;20963;-72
2022/08/29 00:26:04;;;;;;;11.78;7.72;;;;;;;18.74;71.52;99886.61;1762085;78;20947;-69
2022/08/29 00:28:31;;;;;;;14.25;7.80;;;;;;;18.70;71.76;99884.48;1746183;81;21012;-70
2022/08/29 00:30:58;;;;;;;16.32;7.75;;;;;;;18.68;71.92;99883.33;1768891;79;21796;-70
2022/08/29 00:33:24;;;;;;;15.48;7.72;;;;;;;18.69;72.05;99880.98;1765813;80;21040;-69
2022/08/29 00:35:51;;;;;;;13.00;7.37;;;;;;;18.72;72.08;99882.44;1739149;81;20999;-69
2022/08/29 00:38:18;;;;;;;11.60;7.85;;;;;;;18.72;71.97;99880.63;1749228;81;21077;-69
2022/08/29 00:40:51;;;;;;;12.10;7.62;;;;;;;18.73;71.97;99880.12;1767026;79;20988;-69
2022/08/29 00:43:26;;;;;;;;;;;;;;;18.72;72.07;99879.77;1770936;79;21793;-70
2022/08/29 00:46:23;;;;;;;14.50;7.28;;;;;;;18.68;72.08;99880.66;1765264;79;20767;-69
2022/08/29 00:48:54;;;;;;;14.13;7.87;;;;;;;18.63;72.12;99893.75;1765648;79;21054;-70
2022/08/29 00:51:20;;;;;;;11.73;7.70;;;;;;;18.58;72.25;99900.14;1793350;78;20956;-69
2022/08/29 00:53:51;;;;;;;13.90;7.37;;;;;;;18.49;72.37;99910.61;1769532;79;20935;-70
2022/08/29 00:56:17;;;;;;;9.98;7.08;;;;;;;18.35;72.40;99912.78;1787182;78;21733;-70
2022/08/29 00:58:53;;;;;;;12.75;7.20;;;;;;;18.22;72.55;99915.56;1770911;79;20987;-69
2022/08/29 01:01:20;;;;;;;13.35;7.05;;;;;;;18.21;72.57;99917.91;1772900;79;21058;-69
2022/08/29 01:03:46;;;;;;;10.45;7.28;;;;;;;18.19;72.55;99920.45;1748282;79;21533;-70
2022/08/29 01:06:12;;;;;;;14.13;7.25;;;;;;;18.15;72.77;99924.00;1769890;79;22301;-71
2022/08/29 01:08:39;;;;;;;8.18;6.40;;;;;;;18.13;72.83;99926.52;1767908;81;22438;-70
2022/08/29 01:13:51;;;;;;;11.97;7.05;;;;;;;18.10;72.99;99934.39;1755685;81;34178;-69
2022/08/29 01:16:18;;;;;;;9.05;6.30;;;;;;;18.05;73.00;99934.13;1767312;81;21428;-69
2022/08/29 01:18:46;;;;;;;11.28;6.70;;;;;;;18.04;73.00;99933.77;1792531;80;21457;-70
2022/08/29 01:21:39;;;;;;;10.80;6.65;;;;;;;18.06;73.00;99932.28;1818956;78;21797;-70
2022/08/29 01:24:23;;;;;;;8.75;6.85;;;;;;;18.07;72.97;99931.27;1761832;80;20932;-70
2022/08/29 01:26:50;;;;;;;9.55;6.47;;;;;;;18.05;73.06;99931.92;1791365;80;21023;-69
2022/08/29 01:29:17;;;;;;;10.75;6.33;;;;;;;18.02;73.14;99929.95;1752574;80;20931;-71
2022/08/29 01:31:46;;;;;;;9.50;6.45;;;;;;;17.98;73.18;99931.33;1803979;78;21051;-70
2022/08/29 01:34:14;;;;;;;9.08;6.10;;;;;;;17.96;73.22;99932.02;1754522;80;22000;-70
2022/08/29 01:36:50;;;;;;;11.57;6.15;;;;;;;17.93;73.23;99937.70;1757886;80;20994;-71
2022/08/29 01:39:18;;;;;;;15.03;6.33;;;;;;;17.89;73.20;99944.94;1737707;81;21015;-70
2022/08/29 01:41:45;;;;;;;10.43;6.45;;;;;;;17.84;73.26;99940.63;1768681;81;21070;-71
2022/08/29 01:44:15;;;;;;;10.40;6.35;;;;;;;17.84;73.56;99936.11;1769929;79;20987;-70
2022/08/29 01:46:41;;;;;;;13.62;6.78;;;;;;;17.84;73.80;99941.45;1767758;81;21921;-70
2022/08/29 01:49:09;;;;;;;14.07;6.37;;;;;;;17.85;74.14;99941.78;1771874;79;20956;-71
2022/08/29 01:51:37;;;;;;;15.08;6.97;;;;;;;17.87;74.39;99941.63;1795955;78;21015;-70
2022/08/29 01:54:06;;;;;;;10.75;6.83;;;;;;;17.88;74.59;99937.94;1763654;80;21494;-71
2022/08/29 01:56:35;;;;;;;13.38;7.25;;;;;;;17.92;74.78;99930.70;1782410;79;21019;-70
2022/08/29 01:59:04;;;;;;;9.13;6.78;;;;;;;17.96;74.94;99925.34;1786483;80;21799;-70
2022/08/29 02:01:35;;;;;;;12.85;7.33;;;;;;;18.01;74.94;99931.47;1791198;78;20852;-70
2022/08/29 02:04:02;;;;;;;11.75;6.78;;;;;;;18.03;74.90;99932.11;1785838;78;21552;-69
2022/08/29 02:06:29;;;;;;;10.93;6.60;;;;;;;18.02;74.85;99933.95;1768393;80;21062;-69
2022/08/29 02:08:56;;;;;;;9.35;6.70;;;;;;;18.02;74.89;99935.80;1791520;80;20986;-70
2022/08/29 02:11:23;;;;;;;13.03;6.58;;;;;;;18.01;74.84;99937.64;1791691;80;22014;-69
2022/08/29 02:13:55;;;;;;;13.05;7.00;;;;;;;18.02;74.73;99941.97;1790957;79;20971;-70
2022/08/29 02:16:23;;;;;;;9.80;6.80;;;;;;;18.05;74.67;99934.59;1807290;77;20964;-70
2022/08/29 02:18:49;;;;;;;11.55;7.10;;;;;;;18.07;74.73;99944.12;1794540;78;21429;-70
2022/08/29 02:21:19;;;;;;;13.10;7.20;;;;;;;18.08;74.71;99940.94;1796188;78;20916;-70
2022/08/29 02:23:48;;;;;;;10.48;7.00;;;;;;;18.08;74.62;99942.27;1787059;79;21780;-70
2022/08/29 02:26:14;;;;;;;11.40;7.05;;;;;;;18.08;74.56;99941.77;1789514;79;20970;-70
2022/08/29 02:28:41;;;;;;;10.68;6.50;;;;;;;18.07;74.51;99941.45;1789666;80;20980;-70
2022/08/29 02:31:07;;;;;;;11.05;6.67;;;;;;;18.06;74.49;99946.98;1789465;80;20991;-70
2022/08/29 02:33:36;;;;;;;12.18;6.60;;;;;;;18.01;74.52;99948.33;1788386;80;20940;-70
2022/08/29 02:36:04;;;;;;;11.90;7.00;;;;;;;17.99;74.57;99956.20;1798638;78;21912;-70
2022/08/29 02:38:32;;;;;;;10.35;6.42;;;;;;;17.95;74.60;99953.08;1793321;78;21014;-70
2022/08/29 02:40:59;;;;;;;11.35;6.62;;;;;;;17.94;74.55;99961.25;1822191;77;21010;-69
2022/08/29 02:43:25;;;;;;;9.33;6.50;;;;;;;17.93;74.37;99962.26;1793912;77;21047;-70
2022/08/29 02:45:52;;;;;;;10.98;6.87;;;;;;;17.93;74.20;99956.41;1788662;78;20932;-70
2022/08/29 02:48:20;;;;;;;12.10;7.20;;;;;;;17.91;74.16;99957.61;1763479;81;22538;-70
2022/08/29 02:50:50;;;;;;;12.73;7.15;;;;;;;17.92;74.20;99959.27;1791977;79;20999;-70
2022/08/29 02:53:19;;;;;;;13.18;7.40;;;;;;;17.92;74.31;99963.27;1777665;79;20986;-70
2022/08/29 02:55:46;;;;;;;9.35;6.50;;;;;;;17.88;74.36;99962.81;1718437;81;21447;-70
2022/08/29 02:58:14;;;;;;;9.58;6.50;;;;;;;17.83;74.26;99960.34;1749759;79;21660;-70
2022/08/29 03:00:41;;;;;;;10.40;6.70;;;;;;;17.80;74.16;99960.20;1756047;81;21808;-69
2022/08/29 03:03:08;;;;;;;10.72;7.05;;;;;;;17.79;74.09;99956.37;1792421;78;20883;-70
2022/08/29 03:05:36;;;;;;;11.20;7.33;;;;;;;17.78;74.05;99968.08;1788741;80;21045;-70
2022/08/29 03:08:06;;;;;;;10.95;7.33;;;;;;;17.76;74.14;99964.25;1753903;81;21042;-70
2022/08/29 03:10:33;;;;;;;10.82;6.78;;;;;;;17.74;74.25;99971.08;1789589;79;20978;-70
2022/08/29 03:13:00;;;;;;;9.60;6.50;;;;;;;17.73;74.29;99968.08;1750529;81;21930;-70
2022/08/29 03:15:26;;;;;;;9.90;6.65;;;;;;;17.74;74.29;99973.75;1789608;80;20983;-70
2022/08/29 03:17:53;;;;;;;9.43;6.25;;;;;;;17.74;74.28;99963.57;1754377;80;20980;-70
2022/08/29 03:20:21;;;;;;;11.60;6.83;;;;;;;17.74;74.24;99979.09;1822100;78;21019;-70
2022/08/29 03:22:48;;;;;;;10.10;6.40;;;;;;;17.72;74.25;99980.28;1771408;80;21064;-70
2022/08/29 03:25:14;;;;;;;8.55;6.75;;;;;;;17.70;74.24;99980.47;1770574;80;22010;-70
2022/08/29 03:27:41;;;;;;;9.70;6.42;;;;;;;17.68;74.27;99981.13;1761591;81;21031;-70
2022/08/29 03:30:12;;;;;;;9.73;6.50;;;;;;;17.69;74.29;99984.16;1794404;80;21429;-71
2022/08/29 03:32:38;;;;;;;9.45;6.90;;;;;;;17.70;74.35;99987.15;1761060;81;20996;-70
2022/08/29 03:35:06;;;;;;;9.68;6.92;;;;;;;17.69;74.44;99984.16;1795099;79;20919;-71
2022/08/29 03:37:32;;;;;;;10.90;7.28;;;;;;;17.70;74.45;99984.98;1759885;80;21990;-70
2022/08/29 03:40:00;;;;;;;10.48;6.97;;;;;;;17.69;74.46;99994.84;1758579;81;21550;-70
2022/08/29 03:42:26;;;;;;;12.50;6.97;;;;;;;17.71;74.49;99991.98;1794327;79;21326;-70
2022/08/29 03:44:53;;;;;;;12.45;7.17;;;;;;;17.71;74.47;99990.64;1761935;81;21008;-70
2022/08/29 03:47:19;;;;;;;10.18;6.50;;;;;;;17.70;74.51;99987.15;1794823;80;20998;-70
2022/08/29 03:49:45;;;;;;;9.20;7.17;;;;;;;17.71;74.62;99982.12;1763043;80;21854;-70
2022/08/29 03:52:12;;;;;;;9.28;6.90;;;;;;;17.73;74.72;99978.77;1795104;80;20963;-71
2022/08/29 03:54:40;;;;;;;13.03;7.10;;;;;;;17.76;74.72;99976.75;1761704;81;21420;-70
2022/08/29 03:57:06;;;;;;;12.85;7.70;;;;;;;17.76;74.69;99978.94;1794808;80;20991;-70
2022/08/29 03:59:34;;;;;;;12.63;6.92;;;;;;;17.77;74.79;99981.11;1738211;80;20999;-70
2022/08/29 04:02:01;;;;;;;11.15;6.95;;;;;;;17.78;74.90;99982.77;1796548;78;22510;-70
2022/08/29 04:07:14;;;;;;;10.25;7.50;;;;;;;17.76;75.43;99983.42;1795104;79;20955;-70
2022/08/29 04:09:40;;;;;;;12.07;7.42;;;;;;;17.80;75.65;99975.40;1761988;81;20992;-68
2022/08/29 04:12:10;;;;;;;11.53;7.50;;;;;;;17.83;75.80;99983.05;1794955;78;21291;-68
2022/08/29 04:14:39;;;;;;;10.58;7.87;;;;;;;17.88;75.88;99984.19;1761829;81;21999;-68
2022/08/29 04:17:07;;;;;;;11.73;8.00;;;;;;;17.95;75.96;99979.80;1795192;79;20939;-70
2022/08/29 04:19:34;;;;;;;75.78;67.85;;;;;;;18.02;76.10;99979.89;1760998;81;21464;-69
2022/08/29 04:22:02;;;;;;;19.00;15.65;;;;;;;18.09;76.09;99982.69;1773247;79;20993;-69
2022/08/29 04:24:31;;;;;;;30.27;25.65;;;;;;;18.17;76.15;99982.11;1778870;78;21402;-69
2022/08/29 04:26:57;;;;;;;20.12;15.03;;;;;;;18.25;76.18;99980.71;1791600;78;21954;-70
2022/08/29 04:29:24;;;;;;;14.13;10.63;;;;;;;18.34;76.18;99985.98;1792652;78;21010;-70
2022/08/29 04:31:51;;;;;;;14.85;11.22;;;;;;;18.39;76.26;99985.75;1792159;79;20995;-70
2022/08/29 04:34:17;;;;;;;14.35;10.60;;;;;;;18.45;76.52;99988.22;1763744;80;20936;-70
2022/08/29 04:36:46;;;;;;;15.45;10.08;;;;;;;18.50;76.77;99986.64;1801426;78;21022;-71
2022/08/29 04:39:13;;;;;;;11.78;9.23;;;;;;;18.57;77.01;99987.58;1789743;78;21903;-70
2022/08/29 04:41:40;;;;;;;14.70;9.63;;;;;;;18.63;77.28;99987.37;1791712;80;20975;-70
2022/08/29 04:44:07;;;;;;;14.80;9.75;;;;;;;18.68;77.45;99990.34;1791968;80;20932;-72
2022/08/29 04:46:34;;;;;;;13.48;10.10;;;;;;;18.74;77.72;99992.80;1763933;78;21054;-70
2022/08/29 04:49:00;;;;;;;17.12;9.98;;;;;;;18.79;78.02;99988.55;1811726;78;20995;-69
2022/08/29 04:51:27;;;;;;;18.60;10.03;;;;;;;18.85;78.30;99989.16;1785199;80;21791;-70
2022/08/29 04:53:54;;;;;;;15.35;9.65;;;;;;;18.94;78.54;99993.08;1791882;78;21041;-70
2022/08/29 04:56:21;;;;;;;12.88;9.80;;;;;;;19.02;78.81;99987.13;1801543;78;21502;-71
2022/08/29 04:58:49;;;;;;;16.73;10.35;;;;;;;19.12;78.97;99990.85;1795551;78;20984;-70
2022/08/29 05:01:21;;;;;;;14.07;10.25;;;;;;;19.23;79.24;99994.39;1791778;80;21520;-70
2022/08/29 05:03:47;;;;;;;15.88;10.28;;;;;;;19.34;79.46;99997.09;1790434;78;21469;-70
2022/08/29 05:06:16;;;;;;;18.10;12.25;;;;;;;19.47;79.68;99996.41;1789341;78;21283;-70
2022/08/29 05:08:44;;;;;;;24.10;18.90;;;;;;;19.60;79.92;99997.44;1791660;78;21012;-70
2022/08/29 05:11:15;;;;;;;27.48;12.47;;;;;;;19.72;79.92;99996.42;1794260;78;21051;-70
2022/08/29 05:13:42;;;;;;;37.73;26.70;;;;;;;19.83;79.84;99993.23;1800801;78;21023;-69
2022/08/29 05:16:11;;;;;;;22.40;14.28;;;;;;;19.94;79.77;99991.89;1763208;80;21782;-69
2022/08/29 05:18:38;;;;;;;15.93;10.45;;;;;;;20.07;79.76;99982.62;1790455;78;20959;-69
2022/08/29 05:21:05;;;;;;;13.83;9.90;;;;;;;20.18;79.49;99986.14;1789196;78;21058;-70
2022/08/29 05:23:33;;;;;;;18.10;9.38;;;;;;;20.27;79.17;99989.52;1802716;78;21047;-69
2022/08/29 05:26:02;;;;;;;17.10;9.70;;;;;;;20.39;78.97;99985.79;1761560;80;21042;-70
2022/08/29 05:28:30;;;;;;;14.87;10.00;;;;;;;20.49;78.75;99984.45;1758737;80;22322;-71
2022/08/29 05:30:57;;;;;;;16.35;9.50;;;;;;;20.62;78.48;99982.36;1787450;78;20991;-70
2022/08/29 05:33:24;;;;;;;16.35;9.03;;;;;;;20.75;78.26;99982.47;1786760;79;21003;-71
2022/08/29 05:35:51;;;;;;;14.75;9.80;;;;;;;20.89;77.69;99987.38;1788720;78;21472;-71
2022/08/29 05:38:17;;;;;;;16.20;9.50;;;;;;;20.99;76.76;99985.17;1791755;79;21392;-69
2022/08/29 05:40:44;;;;;;;16.80;9.68;;;;;;;21.09;76.08;99987.48;1788095;79;21578;-70
2022/08/29 05:43:10;;;;;;;16.70;9.43;;;;;;;21.19;75.15;99985.77;1788359;78;21455;-70
2022/08/29 05:45:38;;;;;;;15.65;10.18;;;;;;;21.28;74.44;99983.27;1788536;78;21029;-70
2022/08/29 05:48:07;;;;;;;18.12;11.20;;;;;;;21.39;74.04;99982.68;1798208;78;21473;-71
2022/08/29 05:50:40;;;;;;;15.38;10.82;;;;;;;21.52;73.80;99988.11;1795074;78;21037;-71
2022/08/29 05:53:10;;;;;;;15.85;10.88;;;;;;;21.62;73.42;99987.73;1795299;78;21846;-69
2022/08/29 05:55:42;;;;;;;13.53;10.00;;;;;;;21.68;73.21;99991.75;1767475;80;20906;-69
2022/08/29 05:58:10;;;;;;;15.93;11.12;;;;;;;21.80;72.95;99993.84;1768929;80;20982;-71
2022/08/29 06:00:41;;;;;;;18.77;10.28;;;;;;;21.90;71.95;99991.06;1737772;81;21055;-71
2022/08/29 06:03:08;;;;;;;14.65;9.88;;;;;;;21.99;71.64;99990.36;1753812;80;21080;-71
2022/08/29 06:05:35;;;;;;;16.48;9.43;;;;;;;22.11;70.75;99992.80;1759142;80;22303;-67
2022/08/29 06:08:04;;;;;;;12.93;9.60;;;;;;;22.19;69.60;99995.26;1781363;80;21008;-70
2022/08/29 06:10:32;;;;;;;14.47;9.48;;;;;;;22.30;68.58;99997.05;1780485;80;21110;-71
2022/08/29 06:12:58;;;;;;;12.28;9.03;;;;;;;22.39;67.60;100000.67;1786441;80;21062;-78
2022/08/29 06:15:28;;;;;;;22.17;9.60;;;;;;;22.51;67.16;100004.91;1792076;78;21047;-72
2022/08/29 06:17:55;;;;;;;15.38;9.75;;;;;;;22.64;66.78;100013.47;1777047;79;22452;-68
2022/08/29 06:20:21;;;;;;;35.68;31.55;;;;;;;22.76;66.34;100013.13;1789947;78;21544;-68
2022/08/29 06:22:47;;;;;;;22.13;15.93;;;;;;;22.85;66.04;100022.16;1796400;78;21101;-69
2022/08/29 06:25:14;;;;;;;22.15;17.23;;;;;;;22.95;66.10;100017.68;1767102;80;21094;-69
2022/08/29 06:27:42;;;;;;;17.55;13.40;;;;;;;23.05;66.18;100017.24;1764637;80;20996;-70
2022/08/29 06:30:09;;;;;;;21.00;13.53;;;;;;;23.11;65.67;100021.27;1755934;80;21930;-69
2022/08/29 06:32:38;;;;;;;22.37;12.78;;;;;;;23.18;65.11;100021.78;1731668;82;21044;-71
2022/08/29 06:35:06;;;;;;;20.02;11.97;;;;;;;23.23;64.74;100029.52;1739222;82;21449;-69
2022/08/29 06:37:32;;;;;;;19.65;11.35;;;;;;;23.31;64.40;100027.94;1742470;82;21096;-69
2022/08/29 06:39:59;;;;;;;20.85;10.72;;;;;;;23.44;63.88;100027.05;1737488;81;21071;-69
2022/08/29 06:42:25;;;;;;;21.80;13.48;;;;;;;23.59;63.31;100026.30;1728186;82;21788;-69
2022/08/29 06:44:55;;;;;;;16.23;10.55;;;;;;;23.72;62.16;100020.52;1723556;81;21032;-69
2022/08/29 06:47:21;;;;;;;18.00;11.05;;;;;;;23.82;61.55;100023.05;1739981;81;20989;-68
2022/08/29 06:49:48;;;;;;;19.77;9.83;;;;;;;23.92;61.06;100024.75;1736606;81;21051;-72
2022/08/29 06:52:14;;;;;;;25.15;11.93;;;;;;;24.04;60.78;100028.95;1738329;81;21064;-71
2022/08/29 06:54:41;;;;;;;20.12;11.30;;;;;;;24.03;60.06;100031.84;1740104;81;21996;-73
2022/08/29 06:57:08;;;;;;;23.73;13.38;;;;;;;24.07;59.71;100030.37;1737047;82;21004;-71
2022/08/29 06:59:36;;;;;;;32.67;16.48;;;;;;;24.24;59.01;100026.11;1736273;82;21083;-72
2022/08/29 07:02:02;;;;;;;29.75;14.25;;;;;;;24.41;58.32;100023.17;1736371;81;21063;-69
2022/08/29 07:04:29;;;;;;;36.03;15.55;;;;;;;24.52;57.11;100031.11;1738920;81;21106;-68
2022/08/29 07:06:56;;;;;;;37.15;18.00;;;;;;;24.64;55.67;100033.91;1719484;81;22328;-68
2022/08/29 07:09:23;;;;;;;39.20;21.07;;;;;;;24.78;54.75;100039.47;1765281;80;21065;-69
2022/08/29 07:11:49;;;;;;;39.55;20.62;;;;;;;24.94;53.55;100036.72;1763309;80;20924;-67
2022/08/29 07:14:18;;;;;;;36.77;19.00;;;;;;;25.05;52.42;100042.23;1764513;80;21061;-68
2022/08/29 07:16:45;;;;;;;41.68;19.02;;;;;;;25.15;51.92;100038.19;1757619;80;21410;-70
2022/08/29 07:19:12;;;;;;;36.15;17.73;;;;;;;25.22;51.82;100037.59;1762681;80;21924;-68
2022/08/29 07:21:38;;;;;;;36.33;14.78;;;;;;;25.31;51.82;100036.24;1751956;80;21085;-68
2022/08/29 07:24:05;;;;;;;30.57;13.98;;;;;;;25.40;51.45;100043.00;1731059;80;21136;-69
2022/08/29 07:26:37;;;;;;;32.93;12.45;;;;;;;25.51;50.88;100042.75;1795971;78;21011;-67
2022/08/29 07:29:09;;;;;;;26.57;11.55;;;;;;;25.59;50.92;100043.27;1806898;78;21039;-69
2022/08/29 07:31:38;;;;;;;29.95;11.25;;;;;;;25.71;50.83;100050.64;1804626;78;21901;-69
2022/08/29 07:34:05;;;;;;;36.38;11.28;;;;;;;25.84;50.32;100040.98;1775793;80;21011;-68
2022/08/29 07:36:32;;;;;;;34.00;11.30;;;;;;;25.96;49.21;100044.55;1787921;80;20995;-70
2022/08/29 07:38:59;;;;;;;40.08;10.98;;;;;;;26.11;49.39;100049.55;1796932;78;21004;-69
2022/08/29 07:41:28;;;;;;;34.35;11.00;;;;;;;26.20;48.32;100048.98;1788077;79;21017;-68
2022/08/29 07:43:55;;;;;;;20.62;7.20;;;;;;;26.23;48.79;100043.09;1784598;78;22009;-69
2022/08/29 07:46:21;;;;;;;22.67;6.92;;;;;;;26.36;48.46;100045.31;1758082;80;21799;-68
2022/08/29 07:48:48;;;;;;;20.52;7.62;;;;;;;26.48;48.64;100049.71;1785901;80;20943;-68
2022/08/29 07:51:17;;;;;;;23.18;7.78;;;;;;;26.59;47.64;100043.19;1793355;79;21022;-68
2022/08/29 07:53:44;;;;;;;17.73;6.75;;;;;;;26.68;47.36;100045.84;1816259;79;20982;-69
2022/08/29 07:56:15;;;;;;;13.48;5.50;;;;;;;26.60;46.95;100051.60;1791260;80;21896;-68
2022/08/29 07:58:42;;;;;;;12.82;5.37;;;;;;;26.66;47.15;100055.56;1788355;79;21406;-68
2022/08/29 08:01:09;;;;;;;12.05;5.55;;;;;;;26.74;46.53;100057.92;1783442;80;21452;-68
2022/08/29 08:03:36;;;;;;;15.10;6.10;;;;;;;26.79;46.38;100049.90;1754831;80;20992;-68
2022/08/29 08:06:02;;;;;;;15.25;6.17;;;;;;;26.83;45.51;100048.92;1784080;78;21036;-68
2022/08/29 08:08:29;;;;;;;13.95;6.17;;;;;;;26.93;46.49;100055.09;1783240;80;22344;-68
2022/08/29 08:10:55;;;;;;;13.65;5.08;;;;;;;27.13;46.21;100051.52;1742156;80;20994;-68
2022/08/29 08:13:22;;;;;;;14.68;5.25;;;;;;;27.24;44.62;100052.02;1764029;81;21004;-68
2022/08/29 08:15:48;;;;;;;10.93;5.40;;;;;;;27.28;44.93;100052.35;1791998;80;20986;-68
2022/08/29 08:18:16;;;;;;;11.60;5.05;;;;;;;27.32;44.83;100058.44;1763791;80;20936;-68
2022/08/29 08:20:47;;;;;;;9.48;5.17;;;;;;;27.43;44.88;100061.36;1754174;81;21810;-68
2022/08/29 08:23:11;;;;;;;11.68;4.90;;;;;;;27.52;44.47;100059.38;1780011;79;21062;-68
2022/08/29 08:25:37;;;;;;;11.48;5.28;;;;;;;27.59;44.42;100057.33;1788590;79;20977;-68
2022/08/29 08:28:04;;;;;;;13.38;5.22;;;;;;;27.69;44.65;100059.98;1793741;79;21296;-68
2022/08/29 08:30:30;;;;;;;13.55;5.17;;;;;;;27.80;44.03;100056.43;1764216;81;21038;-68
2022/08/29 08:32:57;;;;;;;13.25;5.60;;;;;;;27.89;43.28;100059.02;1791920;80;21817;-68
2022/08/29 08:35:24;;;;;;;12.88;4.97;;;;;;;27.95;43.04;100057.52;1763779;81;21550;-69
2022/08/29 08:37:51;;;;;;;12.37;5.12;;;;;;;28.01;43.02;100051.66;1790188;78;21082;-69
2022/08/29 08:40:25;;;;;;;14.68;5.00;;;;;;;28.06;42.84;100049.56;1759031;81;21007;-68
2022/08/29 08:42:51;;;;;;;;;;;;;;;28.15;42.97;100054.88;1793023;80;21430;-69
2022/08/29 08:45:25;;;;;;;10.13;4.72;;;;;;;28.21;42.10;100051.20;1757765;81;22490;-69
2022/08/29 08:48:06;;;;;;;11.28;5.05;;;;;;;28.16;41.97;100049.73;1791710;79;20972;-70
2022/08/29 08:50:45;;;;;;;10.18;5.28;;;;;;;28.19;42.75;100045.19;1765936;79;20939;-69
2022/08/29 08:53:35;;;;;;;10.93;5.42;;;;;;;28.34;43.19;100052.26;1761788;81;20959;-69
2022/08/29 08:56:06;;;;;;;14.45;5.58;;;;;;;28.54;42.33;100051.77;1761473;81;20980;-69
2022/08/29 08:58:42;;;;;;;11.08;5.10;;;;;;;28.72;41.82;100053.41;1761729;81;21838;-68
2022/08/29 09:01:17;;;;;;;9.30;4.60;;;;;;;28.82;42.55;100054.91;1753122;81;20912;-69
2022/08/29 09:04:06;;;;;;;11.68;5.60;;;;;;;28.91;41.07;100049.38;1746059;81;20972;-68
2022/08/29 09:07:04;;;;;;;10.40;5.33;;;;;;;29.00;41.33;100053.31;1783945;80;20956;-69
2022/08/29 09:10:01;;;;;;;15.88;5.55;;;;;;;29.16;41.54;100051.63;1669884;85;21093;-69
2022/08/29 09:12:55;;;;;;;13.22;5.40;;;;;;;29.11;43.77;100047.47;1750532;80;22942;-67
2022/08/29 09:15:25;;;;;;;10.88;5.05;;;;;;;29.03;44.71;100055.52;1824763;78;21051;-68
2022/08/29 09:18:09;;;;;;;15.40;5.47;;;;;;;29.10;44.13;100056.70;1824698;78;21012;-68
2022/08/29 09:20:37;;;;;;;;;;;;;;;28.97;43.58;100052.45;1773994;80;20916;-68
2022/08/29 09:23:36;;;;;;;11.28;4.90;;;;;;;28.90;43.95;100050.45;1784150;80;20148;-71
2022/08/29 09:26:03;;;;;;;14.20;5.20;;;;;;;28.96;45.00;100052.72;1748167;81;21965;-68
2022/08/29 09:28:29;;;;;;;13.18;5.12;;;;;;;29.14;45.13;100052.39;1756795;81;20959;-68
2022/08/29 09:31:20;;;;;;;18.35;5.50;;;;;;;29.31;44.28;100051.81;1789643;80;20960;-68
2022/08/29 09:33:59;;;;;;;13.30;5.50;;;;;;;29.46;43.17;100051.19;1751195;80;21146;-68
2022/08/29 09:36:49;;;;;;;17.92;5.55;;;;;;;29.53;43.26;100053.73;1789948;80;20931;-68
2022/08/29 09:39:22;;;;;;;12.75;4.95;;;;;;;29.76;42.71;100051.29;1789641;79;21828;-68
2022/08/29 09:42:18;;;;;;;12.13;5.22;;;;;;;29.76;42.71;100051.29;1749818;82;21629;-68
2022/08/29 09:44:54;;;;;;;16.07;5.20;;;;;;;29.97;42.66;100057.22;1765867;81;21028;-68
2022/08/29 09:47:24;;;;;;;14.60;5.20;;;;;;;30.19;41.43;100055.82;1765890;80;21532;-68
2022/08/29 09:50:11;;;;;;;16.10;5.35;;;;;;;30.37;42.38;100048.62;1789662;80;21047;-68
2022/08/29 09:52:42;;;;;;;9.68;5.28;;;;;;;30.54;40.96;100046.31;1789604;80;21842;-69
2022/08/29 09:55:25;;;;;;;13.13;5.45;;;;;;;30.69;41.16;100047.28;1787982;80;20921;-68
2022/08/29 09:57:59;;;;;;;17.35;5.78;;;;;;;30.88;41.35;100044.11;1750161;82;21060;-69
2022/08/29 10:00:36;;;;;;;12.68;5.25;;;;;;;31.11;40.58;100044.25;1773467;79;20954;-68
2022/08/29 10:03:05;;;;;;;15.72;5.03;;;;;;;31.34;39.25;100045.20;1756818;80;21035;-68
2022/08/29 10:05:44;;;;;;;13.05;5.10;;;;;;;31.47;39.15;100047.45;1756872;81;21925;-68
2022/08/29 10:08:33;;;;;;;15.53;5.20;;;;;;;31.57;39.27;100043.94;1789592;80;20995;-68
2022/08/29 10:11:02;;;;;;;18.80;6.42;;;;;;;31.72;39.75;100043.14;1772606;79;20916;-68
2022/08/29 10:13:43;;;;;;;13.03;5.45;;;;;;;31.94;39.77;100051.13;1789824;80;20991;-68
2022/08/29 10:16:49;;;;;;;11.55;5.03;;;;;;;32.15;38.39;100048.17;1789685;80;21450;-68
2022/08/29 10:19:24;;;;;;;9.38;5.08;;;;;;;32.25;38.01;100046.00;1789411;80;22481;-68
2022/08/29 10:22:30;;;;;;;10.63;5.20;;;;;;;32.30;38.52;100050.11;1799770;79;21009;-68
2022/08/29 10:25:27;;;;;;;11.43;5.53;;;;;;;32.48;37.87;100049.30;1678566;84;21490;-68
2022/08/29 10:27:59;;;;;;;19.10;5.92;;;;;;;32.66;37.07;100046.81;1666822;85;21043;-68
2022/08/29 10:30:29;;;;;;;16.57;5.60;;;;;;;32.80;37.33;100051.16;1773056;79;20931;-68
2022/08/29 10:33:13;;;;;;;16.42;5.70;;;;;;;32.96;37.27;100052.80;1805996;79;21870;-67
2022/08/29 10:36:13;;;;;;;12.28;5.30;;;;;;;33.05;36.83;100052.23;1805901;79;21057;-68
2022/08/29 10:38:52;;;;;;;11.53;5.53;;;;;;;33.13;36.51;100047.02;1805859;79;21030;-68
2022/08/29 10:41:39;;;;;;;9.40;5.12;;;;;;;33.25;36.34;100041.22;1806251;79;21378;-68
2022/08/29 10:44:36;;;;;;;12.00;5.78;;;;;;;33.33;35.18;100043.38;1749017;80;21539;-68
2022/08/29 10:47:14;;;;;;;13.43;5.25;;;;;;;33.26;36.29;100040.94;1758601;81;21802;-68
2022/08/29 10:49:55;;;;;;;11.97;5.28;;;;;;;33.32;36.48;100045.85;1723116;82;21046;-69
2022/08/29 10:52:36;;;;;;;10.58;5.15;;;;;;;33.43;35.49;100042.55;1766640;80;21030;-68
2022/08/29 10:55:29;;;;;;;12.78;5.45;;;;;;;33.57;36.03;100051.77;1816886;79;20976;-68
2022/08/29 10:58:20;;;;;;;14.73;5.15;;;;;;;33.76;34.04;100046.47;1816918;79;20949;-68
2022/08/29 11:00:54;;;;;;;9.93;5.70;;;;;;;33.76;34.69;100044.55;1815400;78;22793;-69
2022/08/29 11:03:32;;;;;;;12.82;5.10;;;;;;;33.81;34.16;100045.90;1758366;80;21492;-68
2022/08/29 11:06:04;;;;;;;15.38;5.45;;;;;;;33.80;34.47;100044.81;1720265;83;20952;-68
2022/08/29 11:08:45;;;;;;;13.85;5.50;;;;;;;33.96;34.83;100049.10;1744068;82;21104;-69
2022/08/29 11:11:15;;;;;;;13.85;5.72;;;;;;;34.15;34.61;100050.06;1732010;81;20994;-69
2022/08/29 11:13:50;;;;;;;15.50;5.03;;;;;;;34.36;34.66;100052.67;1789712;79;21946;-70
2022/08/29 11:16:43;;;;;;;11.63;5.87;;;;;;;34.53;33.89;100048.14;1789257;80;20990;-68
2022/08/29 11:19:32;;;;;;;13.15;5.70;;;;;;;34.49;33.02;100051.20;1789966;79;20920;-69
2022/08/29 11:22:06;;;;;;;14.85;5.83;;;;;;;34.31;33.23;100046.66;1789671;79;21398;-69
2022/08/29 11:24:34;;;;;;;9.30;5.10;;;;;;;34.29;33.51;100046.13;1789691;79;20972;-69
2022/08/29 11:27:25;;;;;;;12.25;5.03;;;;;;;34.27;32.38;100044.79;1793401;79;22611;-69
2022/08/29 11:30:07;;;;;;;12.90;5.90;;;;;;;34.21;33.73;100039.08;1811062;79;20965;-69
2022/08/29 11:33:03;;;;;;;11.78;6.17;;;;;;;34.28;32.24;100038.20;1810917;78;21647;-69
2022/08/29 11:36:00;;;;;;;13.35;5.62;;;;;;;34.30;31.69;100042.28;1804983;79;21092;-69
2022/08/29 11:38:54;;;;;;;13.15;5.70;;;;;;;34.38;32.89;100037.59;1786175;78;21041;-69
2022/08/29 11:41:25;;;;;;;11.43;5.55;;;;;;;34.62;33.16;100036.25;1786171;80;21834;-69
2022/08/29 11:44:04;;;;;;;11.12;5.55;;;;;;;34.78;31.17;100029.25;1786041;80;21476;-69
2022/08/29 11:46:41;;;;;;;10.08;5.40;;;;;;;34.76;31.28;100022.69;1771616;80;21038;-69